createdAt,value
2023-08-07T00:01:12.343Z,0.67
2023-08-07T00:06:16.069Z,0.67
2023-08-07T00:11:19.688Z,0.90
2023-08-07T00:16:24.656Z,0.80
2023-08-07T00:21:28.250Z,1.10
2023-08-07T00:26:33.265Z,0.60
2023-08-07T00:31:38.345Z,0.93
2023-08-07T00:36:42.005Z,0.70
2023-08-07T00:41:45.623Z,0.70
2023-08-07T00:46:50.688Z,0.60
2023-08-07T00:51:54.593Z,0.60
2023-08-07T00:57:01.274Z,0.57
2023-08-07T01:02:08.453Z,1.03
2023-08-07T01:07:12.234Z,0.90
2023-08-07T01:12:20.713Z,0.80
2023-08-07T01:17:26.620Z,0.80
2023-08-07T01:22:31.624Z,0.80
2023-08-07T01:27:38.701Z,0.80
2023-08-07T01:32:51.727Z,0.73
2023-08-07T01:37:58.260Z,0.60
2023-08-07T01:43:03.366Z,0.60
2023-08-07T01:48:07.088Z,0.90
2023-08-07T01:53:12.084Z,0.77
2023-08-07T01:58:16.180Z,0.80
2023-08-07T02:03:19.873Z,0.80
2023-08-07T02:08:25.031Z,0.70
2023-08-07T02:13:28.691Z,0.43
2023-08-07T02:18:32.266Z,0.60
2023-08-07T02:23:37.245Z,0.70
2023-08-07T02:28:40.817Z,1.00
2023-08-07T02:33:44.918Z,0.77
2023-08-07T02:38:49.867Z,0.77
2023-08-07T02:43:53.420Z,0.50
2023-08-07T02:48:56.991Z,1.00
2023-08-07T02:54:01.914Z,0.50
2023-08-07T02:59:06.492Z,0.60
2023-08-07T03:04:10.253Z,0.70
2023-08-07T03:09:15.220Z,0.70
2023-08-07T03:14:19.077Z,0.87
2023-08-07T03:19:22.775Z,0.70
2023-08-07T03:24:28.433Z,0.80
2023-08-07T03:29:32.299Z,0.70
2023-08-07T03:34:36.020Z,0.83
2023-08-07T03:39:41.632Z,0.73
2023-08-07T03:44:45.432Z,0.70
2023-08-07T03:49:49.710Z,0.60
2023-08-07T03:54:54.775Z,0.67
2023-08-07T03:59:59.157Z,0.80
2023-08-07T04:05:06.636Z,0.70
2023-08-07T04:10:12.181Z,0.80
2023-08-07T04:15:16.631Z,0.60
2023-08-07T04:20:21.255Z,0.90
2023-08-07T04:25:26.147Z,0.87
2023-08-07T04:30:29.780Z,0.70
2023-08-07T04:35:33.504Z,0.77
2023-08-07T04:40:39.006Z,0.70
2023-08-07T04:45:43.133Z,0.70
2023-08-07T04:50:46.792Z,0.80
2023-08-07T04:55:51.732Z,0.60
2023-08-07T05:00:58.137Z,0.70
2023-08-07T05:06:02.486Z,0.60
2023-08-07T05:11:07.617Z,0.80
2023-08-07T05:16:11.250Z,0.53
2023-08-07T05:21:14.888Z,0.80
2023-08-07T05:26:20.540Z,0.80
2023-08-07T05:31:24.207Z,0.83
2023-08-07T05:36:27.886Z,0.70
2023-08-07T05:41:32.860Z,0.70
2023-08-07T05:46:36.497Z,0.67
2023-08-07T05:51:40.214Z,0.93
2023-08-07T05:56:45.143Z,0.80
2023-08-07T06:01:48.747Z,0.80
2023-08-07T06:06:52.567Z,0.60
2023-08-07T06:11:58.095Z,0.90
2023-08-07T06:17:02.868Z,0.90
2023-08-07T06:22:07.233Z,0.70
2023-08-07T06:27:12.334Z,1.10
2023-08-07T06:32:16.005Z,1.07
2023-08-07T06:37:19.716Z,0.70
2023-08-07T06:42:24.708Z,0.70
2023-08-07T06:47:28.343Z,0.80
2023-08-07T06:52:32.073Z,0.93
2023-08-07T06:57:37.283Z,0.70
2023-08-07T07:02:41.019Z,0.97
2023-08-07T07:07:44.903Z,0.70
2023-08-07T07:12:50.293Z,0.60
2023-08-07T07:17:54.021Z,0.90
2023-08-07T07:22:57.684Z,0.70
2023-08-07T07:28:02.690Z,0.80
2023-08-07T07:33:06.289Z,0.80
2023-08-07T07:38:11.198Z,0.70
2023-08-07T07:43:16.188Z,0.87
2023-08-07T07:48:19.785Z,0.77
2023-08-07T07:53:25.593Z,0.80
2023-08-07T07:58:31.073Z,0.60
2023-08-07T08:03:34.831Z,0.67
2023-08-07T08:08:38.464Z,0.77
2023-08-07T08:13:43.404Z,0.60
2023-08-07T08:18:46.979Z,0.80
2023-08-07T08:23:50.732Z,0.73
2023-08-07T08:28:55.686Z,0.70
2023-08-07T08:33:59.621Z,0.93
2023-08-07T08:39:05.604Z,0.67
2023-08-07T08:44:14.477Z,0.80
2023-08-07T08:49:22.882Z,0.90
2023-08-07T08:54:27.122Z,0.60
2023-08-07T08:59:32.967Z,0.70
2023-08-07T09:04:36.758Z,0.60
2023-08-07T09:09:41.823Z,0.70
2023-08-07T09:14:51.614Z,0.60
2023-08-07T09:19:55.474Z,0.70
2023-08-07T09:25:00.992Z,0.60
2023-08-07T09:30:10.809Z,0.50
2023-08-07T09:35:14.827Z,0.50
2023-08-07T09:40:18.848Z,0.60
2023-08-07T09:45:25.785Z,0.67
2023-08-07T09:50:30.367Z,0.50
2023-08-07T09:55:34.606Z,0.60
2023-08-07T10:00:39.601Z,0.60
2023-08-07T10:05:44.425Z,0.80
2023-08-07T10:10:48.911Z,0.70
2023-08-07T10:15:54.316Z,0.63
2023-08-07T10:20:59.956Z,0.50
2023-08-07T10:26:07.806Z,0.60
2023-08-07T10:31:14.206Z,0.67
2023-08-07T10:36:19.088Z,0.60
2023-08-07T10:41:22.762Z,0.60
2023-08-07T10:46:27.959Z,0.70
2023-08-07T10:51:32.931Z,0.70
2023-08-07T10:56:39.079Z,0.60
2023-08-07T11:01:45.084Z,0.60
2023-08-07T11:06:50.454Z,0.70
2023-08-07T11:11:54.464Z,0.50
2023-08-07T11:16:59.802Z,0.70
2023-08-07T11:22:03.743Z,0.67
2023-08-07T11:27:09.523Z,0.60
2023-08-07T11:32:15.954Z,0.70
2023-08-07T11:37:20.054Z,0.67
2023-08-07T11:42:25.071Z,0.50
2023-08-07T11:47:30.109Z,0.80
2023-08-07T11:52:33.782Z,0.80
2023-08-07T11:57:40.639Z,0.63
2023-08-07T12:02:46.394Z,0.60
2023-08-07T12:07:50.208Z,0.90
2023-08-07T12:13:01.467Z,0.97
2023-08-07T12:18:09.218Z,0.90
2023-08-07T12:23:17.403Z,0.67
2023-08-07T12:28:21.457Z,0.90
2023-08-07T12:33:26.886Z,0.90
2023-08-07T12:38:30.976Z,0.93
2023-08-07T12:43:34.724Z,0.87
2023-08-07T12:48:40.107Z,0.90
2023-08-07T12:53:44.064Z,0.77
2023-08-07T12:58:47.705Z,0.90
2023-08-07T13:03:52.930Z,0.70
2023-08-07T13:08:57.302Z,0.70
2023-08-07T13:14:00.935Z,0.70
2023-08-07T13:19:06.066Z,0.73
2023-08-07T13:24:09.754Z,0.80
2023-08-07T13:29:13.449Z,0.60
2023-08-07T13:34:18.383Z,0.60
2023-08-07T13:39:22.104Z,0.70
2023-08-07T13:44:25.790Z,0.80
2023-08-07T13:49:30.795Z,0.70
2023-08-07T13:54:34.439Z,0.80
2023-08-07T13:59:38.213Z,0.70
2023-08-07T14:04:46.295Z,0.70
2023-08-07T14:09:49.893Z,0.60
2023-08-07T14:14:53.481Z,0.80
2023-08-07T14:19:58.561Z,0.80
2023-08-07T14:25:02.140Z,0.80
2023-08-07T14:30:06.470Z,0.80
2023-08-07T14:35:11.672Z,0.93
2023-08-07T14:40:15.477Z,0.70
2023-08-07T14:45:20.335Z,0.70
2023-08-07T14:50:26.604Z,0.60
2023-08-07T14:55:30.224Z,0.60
2023-08-07T15:00:33.923Z,0.70
2023-08-07T15:05:39.068Z,0.73
2023-08-07T15:10:42.789Z,0.87
2023-08-07T15:15:46.747Z,0.77
2023-08-07T15:20:52.055Z,0.73
2023-08-07T15:25:56.923Z,0.60
2023-08-07T15:31:01.009Z,0.80
2023-08-07T15:36:06.284Z,0.80
2023-08-07T15:41:10.412Z,0.73
2023-08-07T15:46:14.046Z,0.70
2023-08-07T15:51:20.733Z,0.70
2023-08-07T15:56:24.423Z,0.57
2023-08-07T16:01:28.030Z,0.63
2023-08-07T16:06:33.082Z,0.70
2023-08-07T16:11:36.757Z,0.67
2023-08-07T16:16:40.519Z,0.53
2023-08-07T16:21:45.465Z,0.70
2023-08-07T16:26:49.107Z,0.80
2023-08-07T16:31:53.532Z,0.60
2023-08-07T16:36:59.193Z,0.60
2023-08-07T16:42:03.056Z,0.70
2023-08-07T16:47:07.656Z,0.50
2023-08-07T16:52:12.634Z,0.40
2023-08-07T16:57:16.565Z,0.50
2023-08-07T17:02:20.209Z,0.57
2023-08-07T17:07:25.198Z,0.60
2023-08-07T17:12:28.861Z,0.60
2023-08-07T17:17:32.609Z,0.50
2023-08-07T17:22:37.637Z,0.50
2023-08-07T17:27:41.287Z,0.60
2023-08-07T17:32:44.985Z,0.60
2023-08-07T17:37:50.160Z,0.50
2023-08-07T17:42:53.857Z,0.40
2023-08-07T17:47:57.531Z,0.60
2023-08-07T17:53:02.770Z,0.43
2023-08-07T17:58:06.460Z,0.60
2023-08-07T18:03:12.616Z,0.50
2023-08-07T18:08:17.682Z,0.47
2023-08-07T18:13:21.392Z,0.50
2023-08-07T18:18:25.177Z,0.43
2023-08-07T18:23:32.508Z,0.47
2023-08-07T18:28:36.274Z,0.40
2023-08-07T18:33:39.896Z,0.40
2023-08-07T18:38:44.914Z,0.40
2023-08-07T18:43:48.659Z,0.40
2023-08-07T18:48:52.419Z,0.50
2023-08-07T18:53:57.516Z,0.53
2023-08-07T18:59:04.274Z,0.30
2023-08-07T19:04:08.009Z,0.30
2023-08-07T19:09:13.461Z,0.40
2023-08-07T19:14:17.075Z,0.40
2023-08-07T19:19:20.710Z,0.50
2023-08-07T19:24:25.674Z,0.67
2023-08-07T19:29:29.224Z,0.30
2023-08-07T19:34:33.547Z,0.60
2023-08-07T19:39:38.609Z,0.47
2023-08-07T19:44:43.878Z,0.37
2023-08-07T19:49:48.123Z,0.50
2023-08-07T19:54:53.115Z,0.40
2023-08-07T19:59:56.749Z,0.30
2023-08-07T20:05:00.336Z,0.37
2023-08-07T20:10:10.658Z,0.30
2023-08-07T20:15:14.785Z,0.40
2023-08-07T20:20:21.029Z,0.30
2023-08-07T20:25:26.883Z,0.40
2023-08-07T20:30:30.545Z,0.40
2023-08-07T20:35:34.159Z,0.30
2023-08-07T20:40:39.088Z,0.40
2023-08-07T20:45:43.156Z,0.20
2023-08-07T20:50:46.763Z,0.30
2023-08-07T20:55:51.755Z,0.27
2023-08-07T21:00:57.808Z,0.37
2023-08-07T21:06:01.476Z,0.37
2023-08-07T21:11:06.379Z,0.30
2023-08-07T21:16:10.194Z,0.30
2023-08-07T21:21:14.012Z,0.20
2023-08-07T21:26:19.638Z,0.30
2023-08-07T21:31:23.192Z,0.30
2023-08-07T21:36:26.962Z,0.30
2023-08-07T21:41:32.640Z,0.30
2023-08-07T21:46:36.391Z,0.40
2023-08-07T21:51:40.056Z,0.47
2023-08-07T21:56:45.486Z,0.30
2023-08-07T22:01:49.520Z,0.40
2023-08-07T22:06:53.117Z,0.30
2023-08-07T22:11:58.366Z,0.40
2023-08-07T22:17:02.166Z,0.30
2023-08-07T22:22:05.907Z,0.30
2023-08-07T22:27:10.904Z,0.27
2023-08-07T22:32:14.521Z,0.37
2023-08-07T22:37:19.020Z,0.30
2023-08-07T22:42:23.949Z,0.40
2023-08-07T22:47:27.506Z,0.40
2023-08-07T22:52:31.126Z,0.20
2023-08-07T22:57:36.184Z,0.40
2023-08-07T23:02:39.948Z,0.37
2023-08-07T23:07:46.024Z,0.40
2023-08-07T23:12:53.022Z,0.50
2023-08-07T23:17:56.816Z,0.33
2023-08-07T23:23:00.468Z,0.30
2023-08-07T23:28:05.907Z,0.30
2023-08-07T23:33:09.512Z,0.40
2023-08-07T23:38:13.271Z,0.30
2023-08-07T23:43:18.954Z,0.43
2023-08-07T23:48:22.523Z,0.50
2023-08-07T23:53:26.292Z,0.50
2023-08-07T23:58:31.288Z,0.30
